Terminal Aerodrome Forecast
Issued by NWS

Home | Current Version | Previous Version | Text Only | Print | Product List | Glossary On
Versions: 1 2 3 4 5 6 7 8 9 10 11 12 13 14 15
000
FTUS42 KMLB 252300
TAFSFB
TAF
KSFB 252320Z 2600/2624 VRB03KT P6SM BKN120
     FM260100 01006KT P6SM FEW120 SCT250
     FM261400 06006KT P6SM SCT025 BKN050=

USA.gov is the U.S. government's official web portal to all federal, state and local government web resources and services.